createdAt,value
2018-09-23T00:00:15.508Z,101220.73
2018-09-23T00:02:42.421Z,101217.88
2018-09-23T00:05:09.407Z,101213.67
2018-09-23T00:07:36.279Z,101204.09
2018-09-23T00:10:03.251Z,101207.52
2018-09-23T00:12:30.164Z,101201.13
2018-09-23T00:17:30.732Z,101207.34
2018-09-23T00:19:57.641Z,101210.23
2018-09-23T00:22:24.641Z,101205.03
2018-09-23T00:24:51.497Z,101199.13
2018-09-23T00:27:18.398Z,101194.77
2018-09-23T00:29:49.757Z,101201.67
2018-09-23T00:32:17.341Z,101203.14
2018-09-23T00:34:44.456Z,101205.16
2018-09-23T00:37:11.385Z,101194.94
2018-09-23T00:39:38.301Z,101198.44
2018-09-23T00:42:05.204Z,101194.94
2018-09-23T00:44:32.146Z,101191.91
2018-09-23T00:46:59.072Z,101186.34
2018-09-23T00:49:25.986Z,101191.44
2018-09-23T00:51:52.884Z,101185.87
2018-09-23T00:54:19.780Z,101186.68
2018-09-23T00:56:46.700Z,101183.97
2018-09-23T00:59:13.660Z,101174.20
2018-09-23T01:01:40.560Z,101170.52
2018-09-23T01:04:07.472Z,101180.13
2018-09-23T01:06:34.363Z,101183.36
2018-09-23T01:09:01.284Z,101179.33
2018-09-23T01:11:28.216Z,101182.02
2018-09-23T01:13:55.168Z,101179.33
2018-09-23T01:16:22.137Z,101181.70
2018-09-23T01:18:49.300Z,101183.73
2018-09-23T01:21:16.219Z,101181.56
2018-09-23T01:23:43.119Z,101181.03
2018-09-23T01:26:10.040Z,101188.48
2018-09-23T01:28:37.493Z,101190.50
2018-09-23T01:31:04.416Z,101187.48
2018-09-23T01:33:31.340Z,101181.91
2018-09-23T01:35:58.260Z,101186.97
2018-09-23T01:38:25.276Z,101190.81
2018-09-23T01:40:52.217Z,101191.80
2018-09-23T01:43:19.127Z,101184.38
2018-09-23T01:45:46.037Z,101186.89
2018-09-23T01:48:12.976Z,101188.42
2018-09-23T01:50:39.912Z,101189.11
2018-09-23T01:53:06.820Z,101182.55
2018-09-23T01:55:33.723Z,101183.77
2018-09-23T01:58:00.644Z,101174.34
2018-09-23T02:00:27.583Z,101174.30
2018-09-23T02:02:54.492Z,101171.61
2018-09-23T02:05:21.408Z,101174.97
2018-09-23T02:07:48.328Z,101166.21
2018-09-23T02:10:15.328Z,101160.48
2018-09-23T02:12:42.243Z,101166.53
2018-09-23T02:15:09.184Z,101165.66
2018-09-23T02:17:36.076Z,101163.45
2018-09-23T02:20:03.017Z,101158.78
2018-09-23T02:22:29.949Z,101161.42
2018-09-23T02:24:56.860Z,101160.46
2018-09-23T02:27:23.762Z,101160.13
2018-09-23T02:29:50.683Z,101161.30
2018-09-23T02:32:17.581Z,101158.11
2018-09-23T02:34:44.492Z,101159.46
2018-09-23T02:37:11.399Z,101153.22
2018-09-23T02:39:38.322Z,101156.56
2018-09-23T02:42:05.332Z,101150.30
2018-09-23T02:44:32.253Z,101146.27
2018-09-23T02:46:59.179Z,101141.56
2018-09-23T02:49:26.113Z,101138.72
2018-09-23T02:51:53.008Z,101140.56
2018-09-23T02:54:19.908Z,101141.27
2018-09-23T02:56:46.824Z,101139.22
2018-09-23T02:59:13.776Z,101133.83
2018-09-23T03:01:40.689Z,101135.89
2018-09-23T03:04:07.624Z,101135.70
2018-09-23T03:06:34.549Z,101128.44
2018-09-23T03:09:01.465Z,101138.04
2018-09-23T03:11:28.390Z,101126.60
2018-09-23T03:13:55.297Z,101124.26
2018-09-23T03:16:22.257Z,101130.85
2018-09-23T03:18:49.165Z,101125.27
2018-09-23T03:21:16.090Z,101116.38
2018-09-23T03:23:43.039Z,101119.89
2018-09-23T03:26:09.989Z,101116.70
2018-09-23T03:28:36.886Z,101117.05
2018-09-23T03:31:03.820Z,101117.39
2018-09-23T03:33:30.764Z,101118.05
2018-09-23T03:35:57.664Z,101115.64
2018-09-23T03:38:24.604Z,101111.27
2018-09-23T03:40:51.508Z,101112.27
2018-09-23T03:43:18.405Z,101112.78
2018-09-23T03:45:45.339Z,101110.75
2018-09-23T03:48:12.262Z,101113.75
2018-09-23T03:50:39.192Z,101118.43
2018-09-23T03:53:06.108Z,101114.37
2018-09-23T03:55:33.004Z,101107.79
2018-09-23T03:57:59.911Z,101108.98
2018-09-23T04:00:26.809Z,101111.13
2018-09-23T04:02:53.697Z,101104.04
2018-09-23T04:05:20.597Z,101100.30
2018-09-23T04:07:47.546Z,101095.09
2018-09-23T04:10:14.466Z,101089.52
2018-09-23T04:12:41.398Z,101089.91
2018-09-23T04:15:08.385Z,101091.74
2018-09-23T04:17:35.272Z,101093.61
2018-09-23T04:20:02.229Z,101091.74
2018-09-23T04:22:29.126Z,101094.63
2018-09-23T04:24:56.008Z,101093.77
2018-09-23T04:27:22.891Z,101077.28
2018-09-23T04:29:49.788Z,101083.55
2018-09-23T04:32:16.704Z,101084.73
2018-09-23T04:34:43.620Z,101079.70
2018-09-23T04:37:10.524Z,101079.56
2018-09-23T04:39:37.418Z,101076.87
2018-09-23T04:42:04.329Z,101078.73
2018-09-23T04:44:31.221Z,101079.06
2018-09-23T04:46:58.140Z,101078.23
2018-09-23T04:49:25.484Z,101076.70
2018-09-23T04:51:52.374Z,101080.58
2018-09-23T04:54:19.270Z,101080.91
2018-09-23T04:56:46.168Z,101078.21
2018-09-23T04:59:13.054Z,101072.83
2018-09-23T05:01:39.980Z,101074.86
2018-09-23T05:04:06.877Z,101081.07
2018-09-23T05:06:33.789Z,101079.61
2018-09-23T05:09:00.691Z,101079.14
2018-09-23T05:11:27.604Z,101069.92
2018-09-23T05:13:54.513Z,101064.61
2018-09-23T05:16:21.460Z,101074.03
2018-09-23T05:18:48.352Z,101075.19
2018-09-23T05:21:15.241Z,101083.80
2018-09-23T05:23:42.124Z,101080.77
2018-09-23T05:26:09.051Z,101070.69
2018-09-23T05:28:35.968Z,101076.45
2018-09-23T05:31:02.956Z,101074.11
2018-09-23T05:33:29.800Z,101074.65
2018-09-23T05:35:56.709Z,101075.19
2018-09-23T05:38:23.602Z,101088.13
2018-09-23T05:40:50.515Z,101092.68
2018-09-23T05:43:17.453Z,101093.30
2018-09-23T05:45:44.351Z,101086.20
2018-09-23T05:48:11.248Z,101096.58
2018-09-23T05:50:38.161Z,101102.64
2018-09-23T05:53:05.145Z,101091.19
2018-09-23T05:55:31.984Z,101096.05
2018-09-23T05:57:58.925Z,101100.09
2018-09-23T06:00:26.148Z,101105.34
2018-09-23T06:02:54.354Z,101098.60
2018-09-23T06:05:21.244Z,101102.98
2018-09-23T06:07:48.140Z,101095.25
2018-09-23T06:10:15.028Z,101092.88
2018-09-23T06:12:41.935Z,101093.16
2018-09-23T06:15:08.842Z,101085.42
2018-09-23T06:17:35.748Z,101088.25
2018-09-23T06:20:02.748Z,101078.69
2018-09-23T06:22:29.656Z,101081.71
2018-09-23T06:24:56.561Z,101082.06
2018-09-23T06:27:23.493Z,101072.64
2018-09-23T06:29:50.389Z,101084.59
2018-09-23T06:32:17.299Z,101082.70
2018-09-23T06:34:44.192Z,101086.06
2018-09-23T06:37:11.693Z,101087.41
2018-09-23T06:39:38.615Z,101082.30
2018-09-23T06:42:05.556Z,101085.98
2018-09-23T06:44:32.453Z,101082.42
2018-09-23T06:46:59.869Z,101077.61
2018-09-23T06:49:26.752Z,101072.33
2018-09-23T06:51:53.749Z,101079.38
2018-09-23T06:54:20.640Z,101081.81
2018-09-23T06:56:47.549Z,101081.92
2018-09-23T06:59:14.464Z,101087.20
2018-09-23T07:01:41.368Z,101083.85
2018-09-23T07:04:08.277Z,101084.41
2018-09-23T07:06:35.165Z,101084.08
2018-09-23T07:09:02.108Z,101085.23
2018-09-23T07:11:28.997Z,101083.33
2018-09-23T07:13:55.916Z,101086.74
2018-09-23T07:16:22.850Z,101076.37
2018-09-23T07:18:49.741Z,101069.30
2018-09-23T07:21:16.643Z,101071.80
2018-09-23T07:23:43.604Z,101071.37
2018-09-23T07:26:10.465Z,101084.49
2018-09-23T07:28:37.336Z,101090.45
2018-09-23T07:31:04.260Z,101099.09
2018-09-23T07:33:31.148Z,101082.26
2018-09-23T07:36:04.719Z,101082.16
2018-09-23T07:38:31.613Z,101090.87
2018-09-23T07:40:58.520Z,101096.12
2018-09-23T07:43:25.533Z,101089.62
2018-09-23T07:45:52.420Z,101091.52
2018-09-23T07:48:19.312Z,101093.80
2018-09-23T07:50:46.200Z,101079.81
2018-09-23T07:53:13.117Z,101073.64
2018-09-23T07:55:40.005Z,101076.92
2018-09-23T07:58:06.896Z,101075.80
2018-09-23T08:00:33.788Z,101069.78
2018-09-23T08:03:00.685Z,101064.89
2018-09-23T08:05:27.593Z,101070.84
2018-09-23T08:07:54.504Z,101072.13
2018-09-23T08:10:21.553Z,101073.05
2018-09-23T08:12:48.595Z,101077.55
2018-09-23T08:15:15.413Z,101069.70
2018-09-23T08:17:42.565Z,101074.41
2018-09-23T08:20:09.603Z,101069.62
2018-09-23T08:22:36.380Z,101072.03
2018-09-23T08:25:03.575Z,101071.91
2018-09-23T08:27:30.489Z,101073.84
2018-09-23T08:29:57.377Z,101070.07
2018-09-23T08:32:24.322Z,101070.45
2018-09-23T08:34:51.229Z,101069.36
2018-09-23T08:37:18.158Z,101069.66
2018-09-23T08:39:45.052Z,101062.52
2018-09-23T08:42:11.900Z,101066.12
2018-09-23T08:44:38.865Z,101054.90
2018-09-23T08:47:05.740Z,101059.52
2018-09-23T08:52:06.672Z,101048.69
2018-09-23T08:54:33.572Z,101045.98
2018-09-23T08:57:00.461Z,101048.14
2018-09-23T08:59:27.384Z,101042.66
2018-09-23T09:01:54.262Z,101048.89
2018-09-23T09:04:21.152Z,101041.02
2018-09-23T09:06:48.105Z,101033.13
2018-09-23T09:09:15.030Z,101031.73
2018-09-23T09:11:41.967Z,101039.03
2018-09-23T09:14:08.844Z,101031.61
2018-09-23T09:16:35.745Z,101027.28
2018-09-23T09:19:02.673Z,101040.47
2018-09-23T09:21:29.578Z,101043.75
2018-09-23T09:23:56.468Z,101038.64
2018-09-23T09:26:23.356Z,101047.52
2018-09-23T09:28:50.253Z,101046.98
2018-09-23T09:31:17.141Z,101052.52
2018-09-23T09:33:44.063Z,101040.75
2018-09-23T09:36:10.969Z,101045.86
2018-09-23T09:38:37.940Z,101042.43
2018-09-23T09:41:06.348Z,101046.70
2018-09-23T09:43:34.877Z,101051.83
2018-09-23T09:46:02.480Z,101036.31
2018-09-23T09:48:30.082Z,101034.77
2018-09-23T09:50:57.004Z,101034.45
2018-09-23T09:53:23.948Z,101027.45
2018-09-23T09:55:50.822Z,101025.28
2018-09-23T09:58:19.199Z,101017.97
2018-09-23T10:00:46.164Z,101017.88
2018-09-23T10:03:13.061Z,101004.81
2018-09-23T10:05:39.981Z,100993.25
2018-09-23T10:08:06.896Z,100999.52
2018-09-23T10:10:33.832Z,100989.55
2018-09-23T10:13:00.729Z,100993.25
2018-09-23T10:15:27.689Z,100981.73
2018-09-23T10:17:54.597Z,100973.84
2018-09-23T10:20:21.517Z,100974.52
2018-09-23T10:22:55.299Z,100972.17
2018-09-23T10:25:22.131Z,100968.34
2018-09-23T10:27:49.056Z,100959.16
2018-09-23T10:30:15.949Z,100954.39
2018-09-23T10:32:42.855Z,100954.86
2018-09-23T10:35:10.751Z,100951.69
2018-09-23T10:37:39.266Z,100876.63
2018-09-23T10:40:06.975Z,100951.41
2018-09-23T10:42:34.890Z,100916.34
2018-09-23T10:45:03.956Z,100961.12
2018-09-23T10:47:30.897Z,100945.56
2018-09-23T10:49:57.816Z,100934.28
2018-09-23T10:52:26.064Z,100937.98
2018-09-23T10:54:53.028Z,100932.45
2018-09-23T10:57:19.936Z,100917.42
2018-09-23T10:59:46.858Z,100910.63
2018-09-23T11:02:13.748Z,100908.23
2018-09-23T11:04:40.632Z,100916.03
2018-09-23T11:07:07.547Z,100923.52
2018-09-23T11:09:34.486Z,100907.98
2018-09-23T11:12:01.378Z,100907.83
2018-09-23T11:14:28.334Z,100915.66
2018-09-23T11:16:55.254Z,100916.12
2018-09-23T11:19:22.157Z,100916.51
2018-09-23T11:21:49.106Z,100909.33
2018-09-23T11:24:15.998Z,100904.09
2018-09-23T11:26:42.911Z,100901.62
2018-09-23T11:29:09.814Z,100903.28
2018-09-23T11:31:36.757Z,100896.14
2018-09-23T11:34:03.676Z,100888.45
2018-09-23T11:36:30.665Z,100874.71
2018-09-23T11:38:57.580Z,100871.88
2018-09-23T11:41:24.581Z,100861.83
2018-09-23T11:43:51.486Z,100855.56
2018-09-23T11:46:18.379Z,100859.21
2018-09-23T11:48:45.297Z,100851.60
2018-09-23T11:51:12.225Z,100866.19
2018-09-23T11:53:39.129Z,100868.94
2018-09-23T11:56:06.101Z,100859.59
2018-09-23T11:58:33.025Z,100849.98
2018-09-23T12:00:59.956Z,100846.26
2018-09-23T12:03:26.873Z,100855.45
2018-09-23T12:05:53.801Z,100863.55
2018-09-23T12:08:20.742Z,100870.80
2018-09-23T12:10:47.705Z,100873.12
2018-09-23T12:13:14.618Z,100879.86
2018-09-23T12:15:41.579Z,100870.73
2018-09-23T12:18:08.480Z,100865.76
2018-09-23T12:20:35.419Z,100860.56
2018-09-23T12:23:02.319Z,100868.60
2018-09-23T12:25:29.430Z,100876.98
2018-09-23T12:27:56.337Z,100882.82
2018-09-23T12:30:23.248Z,100876.05
2018-09-23T12:32:50.173Z,100865.72
2018-09-23T12:35:17.082Z,100862.92
2018-09-23T12:37:43.988Z,100851.64
2018-09-23T12:40:10.901Z,100848.31
2018-09-23T12:42:37.796Z,100852.52
2018-09-23T12:45:04.819Z,100848.80
2018-09-23T12:47:31.737Z,100828.87
2018-09-23T12:49:58.658Z,100825.91
2018-09-23T12:52:25.528Z,100840.38
2018-09-23T12:54:52.450Z,100839.25
2018-09-23T12:57:19.348Z,100844.25
2018-09-23T12:59:46.360Z,100837.07
2018-09-23T13:02:13.284Z,100828.72
2018-09-23T13:04:40.184Z,100823.09
2018-09-23T13:07:07.090Z,100819.03
2018-09-23T13:09:34.053Z,100827.78
2018-09-23T13:12:00.981Z,100832.00
2018-09-23T13:14:27.937Z,100821.89
2018-09-23T13:16:54.836Z,100808.56
2018-09-23T13:19:21.808Z,100806.09
2018-09-23T13:21:48.722Z,100803.92
2018-09-23T13:24:15.625Z,100800.28
2018-09-23T13:26:42.520Z,100803.13
2018-09-23T13:29:09.435Z,100793.84
2018-09-23T13:31:36.376Z,100807.39
2018-09-23T13:34:03.284Z,100795.02
2018-09-23T13:36:30.202Z,100785.63
2018-09-23T13:38:57.118Z,100784.89
2018-09-23T13:41:24.088Z,100770.73
2018-09-23T13:43:51.014Z,100755.85
2018-09-23T13:46:17.964Z,100763.77
2018-09-23T13:48:44.853Z,100761.25
2018-09-23T13:51:11.760Z,100776.05
2018-09-23T13:53:38.717Z,100758.36
2018-09-23T13:56:05.645Z,100733.06
2018-09-23T13:58:32.552Z,100736.75
2018-09-23T14:00:59.493Z,100751.80
2018-09-23T14:03:26.389Z,100777.86
2018-09-23T14:05:53.317Z,100766.36
2018-09-23T14:08:20.235Z,100746.80
2018-09-23T14:10:47.149Z,100753.12
2018-09-23T14:13:14.053Z,100766.87
2018-09-23T14:15:40.944Z,100794.31
2018-09-23T14:18:07.869Z,100790.72
2018-09-23T14:20:34.777Z,100774.69
2018-09-23T14:23:01.680Z,100784.07
2018-09-23T14:25:28.584Z,100804.83
2018-09-23T14:27:55.484Z,100801.13
2018-09-23T14:30:22.394Z,100803.13
2018-09-23T14:32:49.325Z,100813.75
2018-09-23T14:35:16.228Z,100816.02
2018-09-23T14:37:43.145Z,100793.59
2018-09-23T14:40:10.036Z,100787.47
2018-09-23T14:42:36.967Z,100795.80
2018-09-23T14:45:04.453Z,100793.02
2018-09-23T14:47:31.349Z,100794.87
2018-09-23T14:49:58.259Z,100787.23
2018-09-23T14:52:25.156Z,100790.01
2018-09-23T14:54:52.181Z,100804.01
2018-09-23T14:57:19.002Z,100805.89
2018-09-23T14:59:45.967Z,100802.19
2018-09-23T15:02:12.848Z,100805.88
2018-09-23T15:04:39.769Z,100805.88
2018-09-23T15:07:06.682Z,100810.64
2018-09-23T15:09:33.605Z,100803.32
2018-09-23T15:12:00.508Z,100791.88
2018-09-23T15:14:27.437Z,100796.11
2018-09-23T15:16:54.369Z,100784.09
2018-09-23T15:19:21.305Z,100777.20
2018-09-23T15:21:48.239Z,100787.27
2018-09-23T15:24:15.151Z,100784.91
2018-09-23T15:26:42.048Z,100799.84
2018-09-23T15:29:08.937Z,100795.08
2018-09-23T15:31:35.841Z,100789.04
2018-09-23T15:34:02.749Z,100787.51
2018-09-23T15:36:29.663Z,100782.60
2018-09-23T15:38:56.556Z,100773.28
2018-09-23T15:41:23.475Z,100779.11
2018-09-23T15:43:50.393Z,100774.02
2018-09-23T15:46:17.301Z,100776.94
2018-09-23T15:48:44.228Z,100780.51
2018-09-23T15:51:11.161Z,100781.30
2018-09-23T15:53:38.068Z,100771.32
2018-09-23T15:56:05.008Z,100780.22
2018-09-23T15:58:31.936Z,100772.61
2018-09-23T16:00:58.861Z,100779.45
2018-09-23T16:03:25.776Z,100763.23
2018-09-23T16:05:52.676Z,100764.98
2018-09-23T16:08:19.569Z,100762.92
2018-09-23T16:10:46.479Z,100765.30
2018-09-23T16:13:13.397Z,100766.02
2018-09-23T16:15:40.329Z,100758.73
2018-09-23T16:18:07.261Z,100760.08
2018-09-23T16:20:34.157Z,100763.92
2018-09-23T16:23:01.044Z,100768.05
2018-09-23T16:25:27.952Z,100768.15
2018-09-23T16:27:54.896Z,100766.48
2018-09-23T16:30:21.784Z,100760.65
2018-09-23T16:32:48.724Z,100771.14
2018-09-23T16:35:15.675Z,100775.19
2018-09-23T16:37:42.721Z,100767.52
2018-09-23T16:40:09.569Z,100773.02
2018-09-23T16:42:36.478Z,100774.50
2018-09-23T16:45:03.386Z,100707.09
2018-09-23T16:47:31.524Z,100764.83
2018-09-23T16:49:58.498Z,100765.77
2018-09-23T16:52:25.572Z,100763.16
2018-09-23T16:54:52.524Z,100767.71
2018-09-23T16:57:19.533Z,100767.56
2018-09-23T16:59:46.576Z,100780.57
2018-09-23T17:02:13.556Z,100783.16
2018-09-23T17:04:40.461Z,100790.82
2018-09-23T17:07:07.367Z,100793.20
2018-09-23T17:09:34.262Z,100797.95
2018-09-23T17:12:01.223Z,100797.73
2018-09-23T17:14:28.177Z,100805.68
2018-09-23T17:16:55.114Z,100810.75
2018-09-23T17:19:22.043Z,100821.11
2018-09-23T17:21:49.040Z,100829.41
2018-09-23T17:24:15.941Z,100828.83
2018-09-23T17:26:42.893Z,100829.23
2018-09-23T17:29:09.791Z,100834.05
2018-09-23T17:31:36.730Z,100839.12
2018-09-23T17:34:03.633Z,100839.82
2018-09-23T17:36:30.572Z,100839.38
2018-09-23T17:39:06.225Z,100848.70
2018-09-23T17:41:40.413Z,100858.08
2018-09-23T17:44:07.446Z,100869.19
2018-09-23T17:46:34.690Z,100863.03
2018-09-23T17:49:01.688Z,100861.52
2018-09-23T17:51:28.601Z,100866.84
2018-09-23T17:53:55.523Z,100871.59
2018-09-23T17:56:22.517Z,100888.80
2018-09-23T17:58:49.421Z,100891.37
2018-09-23T18:01:16.372Z,100897.78
2018-09-23T18:03:43.257Z,100899.33
2018-09-23T18:06:10.197Z,100893.98
2018-09-23T18:08:37.133Z,100896.36
2018-09-23T18:11:04.077Z,100906.89
2018-09-23T18:13:30.985Z,100907.13
2018-09-23T18:15:57.888Z,100910.00
2018-09-23T18:18:24.913Z,100923.91
2018-09-23T18:20:51.843Z,100921.39
2018-09-23T18:23:18.829Z,100926.65
2018-09-23T18:25:45.740Z,100919.82
2018-09-23T18:28:12.664Z,100929.22
2018-09-23T18:30:39.548Z,100944.69
2018-09-23T18:33:06.553Z,100952.95
2018-09-23T18:35:33.490Z,100959.55
2018-09-23T18:38:00.425Z,100961.09
2018-09-23T18:40:27.348Z,100964.84
2018-09-23T18:42:54.264Z,100973.30
2018-09-23T18:45:21.199Z,100977.23
2018-09-23T18:47:48.113Z,100980.45
2018-09-23T18:50:15.041Z,100979.47
2018-09-23T18:52:41.949Z,100984.53
2018-09-23T18:55:14.559Z,100997.89
2018-09-23T18:57:41.480Z,101008.53
2018-09-23T19:00:08.425Z,101017.83
2018-09-23T19:02:35.660Z,101011.72
2018-09-23T19:05:02.593Z,101014.28
2018-09-23T19:07:29.510Z,101020.41
2018-09-23T19:09:56.428Z,101021.78
2018-09-23T19:12:30.100Z,101025.48
2018-09-23T19:14:57.009Z,101035.05
2018-09-23T19:17:23.937Z,101030.19
2018-09-23T19:19:56.590Z,101030.52
2018-09-23T19:22:29.329Z,101036.35
2018-09-23T19:24:56.250Z,101038.84
2018-09-23T19:27:23.456Z,101047.95
2018-09-23T19:29:50.381Z,101045.77
2018-09-23T19:32:17.306Z,101052.67
2018-09-23T19:34:44.221Z,101054.88
2018-09-23T19:37:11.126Z,101062.62
2018-09-23T19:39:38.069Z,101068.14
2018-09-23T19:42:04.998Z,101073.23
2018-09-23T19:44:31.912Z,101078.61
2018-09-23T19:46:58.878Z,101073.09
2018-09-23T19:49:25.828Z,101078.33
2018-09-23T19:51:52.713Z,101086.41
2018-09-23T19:54:19.641Z,101096.38
2018-09-23T19:56:46.549Z,101095.91
2018-09-23T19:59:13.494Z,101095.04
2018-09-23T20:01:40.390Z,101089.20
2018-09-23T20:04:07.294Z,101110.22
2018-09-23T20:06:34.213Z,101107.03
2018-09-23T20:09:01.127Z,101111.78
2018-09-23T20:11:28.268Z,101120.55
2018-09-23T20:13:55.186Z,101119.39
2018-09-23T20:16:22.108Z,101121.44
2018-09-23T20:18:49.008Z,101127.00
2018-09-23T20:21:15.908Z,101129.52
2018-09-23T20:23:43.029Z,101138.30
2018-09-23T20:26:09.945Z,101147.88
2018-09-23T20:28:36.868Z,101152.58
2018-09-23T20:31:03.788Z,101156.75
2018-09-23T20:33:30.761Z,101162.66
2018-09-23T20:35:57.694Z,101165.36
2018-09-23T20:38:24.594Z,101170.41
2018-09-23T20:40:51.534Z,101178.83
2018-09-23T20:43:18.449Z,101182.39
2018-09-23T20:45:45.361Z,101178.54
2018-09-23T20:48:12.289Z,101190.31
2018-09-23T20:50:39.185Z,101194.35
2018-09-23T20:53:06.100Z,101197.75
2018-09-23T20:55:33.008Z,101201.60
2018-09-23T20:57:59.912Z,101197.75
2018-09-23T21:00:26.820Z,101211.20
2018-09-23T21:02:53.713Z,101220.80
2018-09-23T21:05:20.610Z,101224.84
2018-09-23T21:07:47.525Z,101232.23
2018-09-23T21:10:14.479Z,101233.77
2018-09-23T21:12:41.331Z,101236.09
2018-09-23T21:15:08.828Z,101244.83
2018-09-23T21:17:36.061Z,101245.20
2018-09-23T21:20:09.936Z,101250.73
2018-09-23T21:22:36.824Z,101257.97
2018-09-23T21:25:03.847Z,101256.80
2018-09-23T21:27:30.744Z,101265.36
2018-09-23T21:29:57.628Z,101272.94
2018-09-23T21:32:24.531Z,101271.59
2018-09-23T21:34:51.428Z,101278.16
2018-09-23T21:37:18.312Z,101288.57
2018-09-23T21:39:45.304Z,101291.78
2018-09-23T21:42:12.189Z,101293.27
2018-09-23T21:44:39.084Z,101301.35
2018-09-23T21:47:05.977Z,101302.20
2018-09-23T21:49:32.877Z,101305.38
2018-09-23T21:51:59.803Z,101304.70
2018-09-23T21:54:26.697Z,101301.02
2018-09-23T21:56:53.598Z,101306.90
2018-09-23T21:59:20.495Z,101309.42
2018-09-23T22:01:47.394Z,101313.79
2018-09-23T22:04:14.297Z,101314.61
2018-09-23T22:06:41.209Z,101322.19
2018-09-23T22:09:08.394Z,101320.50
2018-09-23T22:11:35.349Z,101324.38
2018-09-23T22:14:02.260Z,101323.85
2018-09-23T22:16:29.160Z,101333.26
2018-09-23T22:18:56.048Z,101339.48
2018-09-23T22:21:22.976Z,101342.69
2018-09-23T22:23:49.869Z,101346.53
2018-09-23T22:26:16.764Z,101349.72
2018-09-23T22:28:43.657Z,101356.44
2018-09-23T22:31:10.565Z,101355.27
2018-09-23T22:33:37.461Z,101357.81
2018-09-23T22:36:04.369Z,101367.55
2018-09-23T22:38:31.253Z,101365.86
2018-09-23T22:40:58.180Z,101374.12
2018-09-23T22:43:25.095Z,101373.61
2018-09-23T22:45:52.012Z,101381.01
2018-09-23T22:48:22.548Z,101385.20
2018-09-23T22:50:49.469Z,101384.34
2018-09-23T22:53:16.896Z,101387.05
2018-09-23T22:55:43.857Z,101394.45
2018-09-23T22:58:10.750Z,101403.19
2018-09-23T23:00:37.688Z,101401.35
2018-09-23T23:03:04.616Z,101401.67
2018-09-23T23:05:31.545Z,101404.84
2018-09-23T23:07:58.505Z,101413.62
2018-09-23T23:10:25.400Z,101407.39
2018-09-23T23:12:52.644Z,101412.94
2018-09-23T23:15:19.617Z,101412.27
2018-09-23T23:17:46.530Z,101412.13
2018-09-23T23:20:13.489Z,101427.42
2018-09-23T23:22:40.387Z,101423.39
2018-09-23T23:25:07.320Z,101429.61
2018-09-23T23:27:41.100Z,101432.77
2018-09-23T23:30:08.039Z,101435.31
2018-09-23T23:32:34.937Z,101434.31
2018-09-23T23:35:01.870Z,101439.19
2018-09-23T23:37:28.808Z,101443.17
2018-09-23T23:39:55.837Z,101449.39
2018-09-23T23:42:22.928Z,101450.05
2018-09-23T23:44:49.856Z,101456.75
2018-09-23T23:47:16.873Z,101469.67
2018-09-23T23:49:43.773Z,101474.37
2018-09-23T23:52:10.688Z,101474.17
2018-09-23T23:54:37.576Z,101479.89
2018-09-23T23:57:04.523Z,101486.47
2018-09-23T23:59:31.432Z,101490.16
